createdAt,value
2022-10-23T00:01:42.758Z,12.70
2022-10-23T00:04:17.538Z,12.70
2022-10-23T00:06:45.245Z,12.60
2022-10-23T00:09:14.321Z,12.50
2022-10-23T00:11:42.170Z,12.50
2022-10-23T00:14:09.038Z,12.50
2022-10-23T00:16:36.040Z,12.50
2022-10-23T00:19:03.869Z,12.40
2022-10-23T00:21:30.726Z,12.40
2022-10-23T00:23:57.627Z,12.40
2022-10-23T00:26:24.720Z,12.30
2022-10-23T00:28:53.406Z,12.30
2022-10-23T00:31:22.457Z,12.20
2022-10-23T00:33:49.623Z,12.20
2022-10-23T00:36:19.437Z,12.20
2022-10-23T00:38:46.726Z,12.10
2022-10-23T00:41:29.782Z,12.10
2022-10-23T00:43:58.488Z,12.10
2022-10-23T00:46:25.345Z,12.00
2022-10-23T00:48:52.418Z,12.00
2022-10-23T00:51:19.680Z,12.00
2022-10-23T00:54:01.051Z,11.90
2022-10-23T00:56:40.848Z,11.90
2022-10-23T00:59:08.110Z,11.90
2022-10-23T01:01:35.250Z,11.90
2022-10-23T01:04:04.296Z,11.90
2022-10-23T01:06:40.252Z,11.90
2022-10-23T01:09:17.977Z,11.80
2022-10-23T01:11:57.834Z,11.80
2022-10-23T01:15:08.988Z,11.70
2022-10-23T01:18:05.114Z,11.70
2022-10-23T01:20:42.543Z,11.70
2022-10-23T01:23:27.270Z,11.70
2022-10-23T01:26:10.054Z,11.70
2022-10-23T01:28:42.233Z,11.60
2022-10-23T01:31:16.095Z,11.60
2022-10-23T01:33:51.458Z,11.60
2022-10-23T01:36:23.960Z,11.60
2022-10-23T01:38:56.385Z,11.60
2022-10-23T01:41:30.871Z,11.70
2022-10-23T01:43:57.706Z,11.70
2022-10-23T01:46:27.293Z,11.60
2022-10-23T01:48:56.117Z,11.60
2022-10-23T01:51:27.187Z,11.60
2022-10-23T01:53:58.911Z,11.60
2022-10-23T01:56:38.027Z,11.60
2022-10-23T01:59:11.394Z,11.50
2022-10-23T02:01:42.124Z,11.60
2022-10-23T02:04:12.329Z,11.50
2022-10-23T02:06:39.221Z,11.50
2022-10-23T02:09:07.255Z,11.50
2022-10-23T02:11:44.672Z,11.40
2022-10-23T02:14:33.951Z,11.40
2022-10-23T02:17:21.515Z,11.40
2022-10-23T02:20:02.713Z,11.30
2022-10-23T02:22:41.505Z,11.30
2022-10-23T02:25:19.770Z,11.30
2022-10-23T02:27:54.028Z,11.30
2022-10-23T02:30:21.305Z,11.30
2022-10-23T02:32:50.936Z,11.20
2022-10-23T02:35:20.272Z,11.10
2022-10-23T02:37:58.297Z,11.10
2022-10-23T02:40:36.285Z,11.10
2022-10-23T02:43:11.240Z,11.10
2022-10-23T02:45:54.393Z,11.00
2022-10-23T02:48:26.958Z,11.10
2022-10-23T02:51:07.547Z,11.00
2022-10-23T02:54:18.755Z,11.00
2022-10-23T02:56:56.006Z,11.00
2022-10-23T02:59:46.222Z,10.90
2022-10-23T03:02:26.204Z,10.90
2022-10-23T03:04:55.915Z,10.90
2022-10-23T03:07:25.978Z,10.90
2022-10-23T03:09:52.810Z,10.80
2022-10-23T03:12:19.603Z,10.80
2022-10-23T03:14:46.484Z,10.80
2022-10-23T03:17:13.299Z,10.70
2022-10-23T03:19:40.099Z,10.70
2022-10-23T03:22:06.975Z,10.70
2022-10-23T03:24:33.758Z,10.70
2022-10-23T03:27:00.621Z,10.70
2022-10-23T03:29:27.505Z,10.70
2022-10-23T03:31:55.793Z,10.70
2022-10-23T03:34:22.630Z,10.60
2022-10-23T03:36:49.586Z,10.60
2022-10-23T03:39:17.018Z,10.60
2022-10-23T03:41:43.872Z,10.60
2022-10-23T03:44:10.690Z,10.60
2022-10-23T03:46:37.521Z,10.60
2022-10-23T03:49:04.504Z,10.60
2022-10-23T03:51:31.526Z,10.50
2022-10-23T03:53:58.322Z,10.50
2022-10-23T03:56:25.369Z,10.50
2022-10-23T03:58:52.203Z,10.50
2022-10-23T04:01:19.060Z,10.40
2022-10-23T04:03:45.914Z,10.40
2022-10-23T04:06:13.152Z,10.40
2022-10-23T04:08:40.147Z,10.40
2022-10-23T04:11:06.972Z,10.40
2022-10-23T04:13:33.803Z,10.30
2022-10-23T04:16:00.594Z,10.30
2022-10-23T04:18:27.611Z,10.30
2022-10-23T04:20:54.486Z,10.40
2022-10-23T04:23:21.290Z,10.30
2022-10-23T04:28:19.788Z,10.30
2022-10-23T04:30:46.580Z,10.20
2022-10-23T04:33:13.430Z,10.20
2022-10-23T04:35:40.284Z,10.10
2022-10-23T04:38:07.147Z,10.10
2022-10-23T04:40:34.004Z,10.10
2022-10-23T04:43:00.943Z,10.10
2022-10-23T04:45:27.765Z,10.10
2022-10-23T04:47:54.597Z,10.10
2022-10-23T04:50:21.448Z,10.00
2022-10-23T04:52:48.934Z,10.00
2022-10-23T04:55:15.772Z,10.10
2022-10-23T04:57:42.632Z,10.10
2022-10-23T05:00:12.239Z,10.10
2022-10-23T05:02:39.013Z,10.10
2022-10-23T05:05:07.569Z,10.20
2022-10-23T05:07:35.320Z,10.10
2022-10-23T05:10:03.528Z,10.10
2022-10-23T05:12:30.505Z,10.20
2022-10-23T05:14:57.539Z,10.20
2022-10-23T05:17:29.392Z,10.20
2022-10-23T05:19:59.682Z,10.10
2022-10-23T05:22:32.669Z,10.10
2022-10-23T05:25:02.011Z,10.10
2022-10-23T05:27:28.881Z,10.10
2022-10-23T05:29:55.645Z,10.10
2022-10-23T05:32:24.404Z,10.10
2022-10-23T05:34:51.316Z,10.10
2022-10-23T05:37:18.957Z,10.10
2022-10-23T05:39:45.819Z,10.10
2022-10-23T05:42:12.607Z,10.00
2022-10-23T05:44:39.545Z,10.00
2022-10-23T05:47:07.826Z,10.00
2022-10-23T05:49:34.757Z,10.00
2022-10-23T05:52:01.526Z,10.00
2022-10-23T05:54:28.376Z,10.00
2022-10-23T05:56:56.018Z,10.10
2022-10-23T05:59:23.420Z,10.00
2022-10-23T06:01:50.411Z,10.00
2022-10-23T06:04:17.478Z,10.00
2022-10-23T06:06:46.563Z,10.10
2022-10-23T06:09:14.703Z,10.10
2022-10-23T06:11:42.455Z,10.10
2022-10-23T06:14:09.286Z,10.10
2022-10-23T06:16:36.518Z,10.10
2022-10-23T06:19:03.481Z,10.10
2022-10-23T06:21:30.313Z,10.10
2022-10-23T06:23:57.282Z,10.20
2022-10-23T06:26:24.241Z,10.20
2022-10-23T06:28:51.088Z,10.30
2022-10-23T06:31:19.694Z,10.30
2022-10-23T06:33:46.692Z,10.30
2022-10-23T06:36:13.539Z,10.40
2022-10-23T06:38:40.772Z,10.40
2022-10-23T06:41:17.194Z,10.40
2022-10-23T06:43:44.723Z,10.50
2022-10-23T06:46:11.514Z,10.50
2022-10-23T06:48:38.390Z,10.50
2022-10-23T06:51:08.153Z,10.60
2022-10-23T06:53:36.129Z,10.60
2022-10-23T06:56:05.099Z,10.70
2022-10-23T06:58:32.411Z,10.70
2022-10-23T07:01:05.091Z,10.70
2022-10-23T07:03:32.574Z,10.80
2022-10-23T07:06:04.155Z,10.80
2022-10-23T07:08:31.129Z,10.80
2022-10-23T07:10:58.279Z,10.80
2022-10-23T07:13:25.188Z,10.90
2022-10-23T07:15:52.126Z,11.00
2022-10-23T07:18:19.650Z,11.00
2022-10-23T07:20:49.456Z,11.10
2022-10-23T07:23:16.666Z,11.20
2022-10-23T07:25:43.617Z,11.20
2022-10-23T07:28:10.411Z,11.30
2022-10-23T07:30:37.256Z,11.40
2022-10-23T07:33:04.129Z,11.50
2022-10-23T07:35:33.043Z,11.60
2022-10-23T07:38:02.437Z,11.70
2022-10-23T07:40:29.298Z,11.80
2022-10-23T07:42:56.753Z,11.80
2022-10-23T07:45:23.552Z,11.90
2022-10-23T07:47:52.135Z,12.00
2022-10-23T07:50:19.186Z,12.00
2022-10-23T07:52:46.208Z,12.10
2022-10-23T07:55:14.144Z,12.20
2022-10-23T07:57:40.988Z,12.30
2022-10-23T08:00:09.985Z,12.30
2022-10-23T08:02:37.106Z,12.40
2022-10-23T08:05:04.662Z,12.40
2022-10-23T08:07:31.614Z,12.40
2022-10-23T08:09:58.461Z,12.60
2022-10-23T08:12:25.403Z,12.60
2022-10-23T08:14:52.315Z,12.80
2022-10-23T08:17:19.237Z,13.00
2022-10-23T08:19:48.456Z,13.20
2022-10-23T08:22:15.486Z,13.30
2022-10-23T08:24:42.687Z,13.50
2022-10-23T08:27:09.568Z,13.70
2022-10-23T08:29:36.476Z,14.00
2022-10-23T08:32:03.427Z,14.30
2022-10-23T08:34:30.482Z,14.60
2022-10-23T08:36:57.344Z,15.10
2022-10-23T08:39:24.246Z,15.80
2022-10-23T08:41:52.684Z,16.10
2022-10-23T08:44:28.354Z,16.20
2022-10-23T08:47:07.822Z,16.20
2022-10-23T08:49:45.703Z,16.10
2022-10-23T08:52:42.327Z,16.20
2022-10-23T08:55:18.489Z,16.30
2022-10-23T08:58:00.586Z,16.30
2022-10-23T09:00:28.157Z,16.30
2022-10-23T09:02:55.981Z,16.20
2022-10-23T09:05:31.876Z,16.00
2022-10-23T09:08:32.549Z,15.90
2022-10-23T09:11:14.761Z,15.90
2022-10-23T09:13:59.613Z,16.10
2022-10-23T09:16:53.565Z,16.20
2022-10-23T09:19:26.382Z,16.50
2022-10-23T09:21:54.373Z,17.30
2022-10-23T09:24:24.160Z,18.40
2022-10-23T09:26:53.302Z,19.10
2022-10-23T09:29:36.113Z,20.50
2022-10-23T09:32:07.287Z,21.80
2022-10-23T09:34:35.275Z,22.20
2022-10-23T09:37:17.218Z,22.00
2022-10-23T09:39:44.080Z,21.80
2022-10-23T09:42:25.386Z,21.90
2022-10-23T09:44:54.289Z,22.20
2022-10-23T09:47:24.330Z,22.90
2022-10-23T09:49:56.485Z,24.20
2022-10-23T09:52:38.715Z,25.10
2022-10-23T09:55:26.138Z,25.50
2022-10-23T09:57:54.399Z,26.00
2022-10-23T10:00:24.599Z,26.70
2022-10-23T10:03:05.497Z,27.10
2022-10-23T10:05:35.001Z,27.90
2022-10-23T10:08:15.365Z,28.50
2022-10-23T10:10:50.149Z,28.90
2022-10-23T10:13:25.734Z,29.00
2022-10-23T10:16:05.230Z,28.70
2022-10-23T10:18:52.274Z,28.40
2022-10-23T10:21:26.594Z,28.10
2022-10-23T10:24:27.521Z,28.70
2022-10-23T10:27:12.207Z,30.20
2022-10-23T10:29:38.969Z,31.10
2022-10-23T10:32:32.316Z,31.30
2022-10-23T10:35:04.141Z,31.10
2022-10-23T10:38:08.693Z,30.30
2022-10-23T10:40:41.507Z,29.50
2022-10-23T10:43:36.020Z,28.80
2022-10-23T10:46:30.887Z,28.20
2022-10-23T10:49:11.625Z,27.90
2022-10-23T10:51:47.248Z,27.80
2022-10-23T10:54:52.273Z,27.90
2022-10-23T10:57:34.783Z,28.50
2022-10-23T11:00:12.598Z,28.80
2022-10-23T11:02:47.929Z,28.80
2022-10-23T11:05:20.615Z,28.90
2022-10-23T11:08:07.259Z,29.40
2022-10-23T11:10:35.708Z,29.60
2022-10-23T11:13:04.166Z,29.90
2022-10-23T11:15:42.764Z,30.00
2022-10-23T11:18:22.866Z,30.10
2022-10-23T11:20:58.627Z,29.40
2022-10-23T11:23:37.648Z,29.20
2022-10-23T11:26:20.288Z,28.80
2022-10-23T11:29:10.440Z,28.20
2022-10-23T11:31:55.154Z,27.40
2022-10-23T11:34:49.036Z,26.40
2022-10-23T11:37:20.916Z,25.50
2022-10-23T11:40:24.031Z,24.70
2022-10-23T11:42:51.747Z,24.00
2022-10-23T11:45:47.917Z,23.70
2022-10-23T11:48:14.708Z,23.20
2022-10-23T11:50:44.573Z,23.00
2022-10-23T11:53:31.644Z,22.80
2022-10-23T11:56:14.522Z,22.60
2022-10-23T11:58:49.229Z,22.40
2022-10-23T12:01:24.445Z,22.10
2022-10-23T12:03:54.802Z,22.00
2022-10-23T12:06:28.594Z,21.90
2022-10-23T12:09:05.014Z,21.90
2022-10-23T12:11:47.850Z,22.00
2022-10-23T12:14:28.019Z,22.40
2022-10-23T12:16:55.313Z,22.80
2022-10-23T12:19:24.401Z,23.40
2022-10-23T12:21:57.287Z,23.90
2022-10-23T12:24:39.379Z,24.20
2022-10-23T12:27:08.993Z,24.20
2022-10-23T12:30:11.242Z,24.00
2022-10-23T12:33:23.036Z,23.80
2022-10-23T12:36:13.912Z,23.60
2022-10-23T12:38:47.945Z,23.40
2022-10-23T12:41:17.417Z,23.20
2022-10-23T12:44:05.680Z,23.30
2022-10-23T12:46:46.854Z,23.10
2022-10-23T12:49:15.131Z,23.10
2022-10-23T12:51:41.989Z,23.00
2022-10-23T12:54:19.931Z,22.80
2022-10-23T12:56:47.895Z,22.50
2022-10-23T12:59:19.601Z,22.30
2022-10-23T13:01:50.416Z,21.90
2022-10-23T13:04:25.450Z,21.70
2022-10-23T13:06:53.297Z,21.60
2022-10-23T13:09:44.783Z,21.40
2022-10-23T13:12:30.187Z,21.20
2022-10-23T13:15:09.031Z,21.00
2022-10-23T13:17:41.659Z,20.90
2022-10-23T13:20:22.596Z,20.80
2022-10-23T13:23:11.456Z,20.80
2022-10-23T13:25:39.849Z,20.90
2022-10-23T13:28:23.245Z,21.00
2022-10-23T13:31:12.361Z,21.10
2022-10-23T13:33:43.304Z,21.30
2022-10-23T13:36:16.750Z,21.50
2022-10-23T13:39:05.290Z,21.70
2022-10-23T13:42:09.174Z,22.00
2022-10-23T13:44:37.653Z,22.30
2022-10-23T13:47:05.381Z,22.40
2022-10-23T13:49:32.609Z,22.60
2022-10-23T13:51:59.396Z,22.90
2022-10-23T13:56:56.721Z,23.40
2022-10-23T13:59:24.033Z,23.50
2022-10-23T14:01:51.150Z,23.50
2022-10-23T14:04:19.200Z,23.50
2022-10-23T14:06:46.331Z,23.50
2022-10-23T14:09:15.729Z,23.60
2022-10-23T14:11:43.346Z,23.60
2022-10-23T14:14:10.190Z,23.80
2022-10-23T14:16:37.697Z,24.00
2022-10-23T14:19:04.720Z,24.00
2022-10-23T14:21:31.845Z,24.10
2022-10-23T14:23:58.676Z,24.10
2022-10-23T14:26:30.815Z,24.00
2022-10-23T14:29:02.255Z,23.80
2022-10-23T14:31:33.701Z,23.60
2022-10-23T14:34:00.842Z,23.40
2022-10-23T14:36:38.358Z,23.20
2022-10-23T14:39:15.901Z,23.10
2022-10-23T14:41:42.744Z,22.90
2022-10-23T14:44:09.528Z,22.80
2022-10-23T14:46:38.392Z,22.70
2022-10-23T14:49:05.704Z,22.60
2022-10-23T14:51:32.604Z,22.50
2022-10-23T14:54:04.274Z,22.40
2022-10-23T14:56:33.661Z,22.40
2022-10-23T14:59:03.882Z,22.30
2022-10-23T15:01:38.102Z,22.10
2022-10-23T15:04:06.017Z,22.00
2022-10-23T15:06:34.114Z,22.00
2022-10-23T15:09:00.942Z,21.90
2022-10-23T15:11:28.128Z,21.80
2022-10-23T15:13:55.549Z,21.70
2022-10-23T15:16:23.515Z,21.60
2022-10-23T15:18:51.236Z,21.50
2022-10-23T15:21:18.741Z,21.40
2022-10-23T15:23:46.339Z,21.20
2022-10-23T15:26:20.404Z,21.00
2022-10-23T15:28:59.329Z,20.90
2022-10-23T15:31:38.074Z,20.80
2022-10-23T15:34:06.338Z,20.70
2022-10-23T15:36:33.692Z,20.60
2022-10-23T15:39:00.570Z,20.50
2022-10-23T15:41:32.356Z,20.40
2022-10-23T15:43:59.965Z,20.30
2022-10-23T15:46:27.602Z,20.20
2022-10-23T15:48:54.620Z,20.10
2022-10-23T15:51:22.237Z,20.00
2022-10-23T15:53:49.208Z,19.90
2022-10-23T15:56:16.109Z,19.80
2022-10-23T15:58:42.911Z,19.70
2022-10-23T16:01:09.872Z,19.50
2022-10-23T16:03:38.494Z,19.50
2022-10-23T16:06:07.036Z,19.40
2022-10-23T16:08:34.347Z,19.30
2022-10-23T16:11:01.194Z,19.20
2022-10-23T16:13:28.578Z,19.20
2022-10-23T16:15:55.379Z,19.20
2022-10-23T16:18:23.114Z,19.20
2022-10-23T16:20:55.178Z,19.20
2022-10-23T16:23:22.610Z,19.10
2022-10-23T16:25:51.145Z,19.10
2022-10-23T16:28:17.948Z,19.10
2022-10-23T16:30:45.352Z,19.10
2022-10-23T16:33:12.951Z,19.10
2022-10-23T16:35:40.035Z,19.10
2022-10-23T16:38:06.862Z,19.10
2022-10-23T16:40:33.644Z,19.00
2022-10-23T16:43:00.440Z,19.00
2022-10-23T16:45:27.335Z,19.00
2022-10-23T16:47:54.141Z,18.90
2022-10-23T16:50:20.993Z,18.80
2022-10-23T16:52:49.111Z,18.80
2022-10-23T16:55:17.951Z,18.80
2022-10-23T16:57:44.747Z,18.80
2022-10-23T17:00:11.925Z,18.70
2022-10-23T17:02:38.886Z,18.70
2022-10-23T17:05:06.088Z,18.60
2022-10-23T17:07:33.326Z,18.50
2022-10-23T17:10:00.139Z,18.50
2022-10-23T17:12:26.936Z,18.40
2022-10-23T17:14:53.769Z,18.40
2022-10-23T17:17:20.633Z,18.40
2022-10-23T17:19:47.429Z,18.30
2022-10-23T17:22:14.957Z,18.20
2022-10-23T17:24:44.223Z,18.20
2022-10-23T17:27:13.383Z,18.10
2022-10-23T17:29:40.248Z,18.10
2022-10-23T17:32:07.555Z,18.10
2022-10-23T17:34:34.467Z,18.10
2022-10-23T17:37:01.282Z,18.00
2022-10-23T17:39:29.867Z,18.00
2022-10-23T17:41:57.362Z,18.00
2022-10-23T17:44:24.225Z,18.00
2022-10-23T17:46:55.328Z,18.00
2022-10-23T17:49:22.828Z,17.90
2022-10-23T17:51:54.953Z,17.90
2022-10-23T17:54:22.861Z,17.90
2022-10-23T17:56:49.794Z,17.80
2022-10-23T17:59:19.717Z,17.80
2022-10-23T18:01:48.313Z,17.80
2022-10-23T18:04:17.136Z,17.80
2022-10-23T18:06:47.695Z,17.70
2022-10-23T18:09:15.188Z,17.70
2022-10-23T18:11:45.513Z,17.70
2022-10-23T18:14:17.056Z,17.60
2022-10-23T18:16:45.625Z,17.50
2022-10-23T18:19:13.967Z,17.50
2022-10-23T18:21:40.865Z,17.50
2022-10-23T18:24:07.982Z,17.40
2022-10-23T18:26:35.443Z,17.30
2022-10-23T18:29:04.917Z,17.20
2022-10-23T18:31:31.876Z,17.10
2022-10-23T18:34:05.046Z,17.10
2022-10-23T18:36:35.311Z,17.10
2022-10-23T18:39:02.149Z,17.00
2022-10-23T18:41:36.746Z,17.00
2022-10-23T18:44:04.048Z,17.00
2022-10-23T18:46:31.120Z,17.00
2022-10-23T18:48:58.286Z,17.00
2022-10-23T18:51:28.608Z,17.00
2022-10-23T18:53:56.293Z,17.00
2022-10-23T18:56:26.719Z,17.00
2022-10-23T18:58:56.050Z,17.00
2022-10-23T19:01:24.137Z,17.00
2022-10-23T19:03:51.106Z,17.00
2022-10-23T19:06:18.407Z,17.00
2022-10-23T19:08:46.379Z,17.00
2022-10-23T19:11:15.124Z,16.90
2022-10-23T19:13:42.946Z,16.80
2022-10-23T19:16:27.619Z,16.70
2022-10-23T19:19:04.292Z,16.60
2022-10-23T19:21:36.825Z,16.60
2022-10-23T19:24:11.393Z,16.60
2022-10-23T19:26:39.861Z,16.70
2022-10-23T19:29:08.624Z,16.70
2022-10-23T19:31:35.626Z,16.80
2022-10-23T19:34:02.525Z,16.90
2022-10-23T19:36:29.373Z,16.90
2022-10-23T19:38:56.240Z,16.90
2022-10-23T19:41:23.327Z,16.90
2022-10-23T19:43:50.151Z,16.90
2022-10-23T19:46:17.011Z,16.90
2022-10-23T19:48:45.048Z,17.00
2022-10-23T19:51:13.351Z,17.00
2022-10-23T19:53:41.341Z,17.00
2022-10-23T19:56:10.126Z,17.00
2022-10-23T19:58:37.518Z,17.00
2022-10-23T20:01:16.290Z,17.00
2022-10-23T20:03:48.841Z,17.00
2022-10-23T20:06:18.882Z,17.10
2022-10-23T20:08:46.362Z,17.00
2022-10-23T20:11:28.708Z,17.10
2022-10-23T20:13:56.709Z,17.10
2022-10-23T20:16:35.848Z,17.10
2022-10-23T20:19:08.137Z,17.10
2022-10-23T20:21:36.847Z,17.10
2022-10-23T20:24:03.840Z,17.10
2022-10-23T20:26:30.645Z,17.00
2022-10-23T20:28:57.626Z,17.00
2022-10-23T20:31:26.008Z,17.00
2022-10-23T20:33:53.623Z,17.00
2022-10-23T20:36:33.113Z,17.10
2022-10-23T20:39:03.375Z,17.10
2022-10-23T20:41:33.126Z,17.10
2022-10-23T20:44:00.793Z,17.10
2022-10-23T20:46:27.952Z,17.10
2022-10-23T20:48:54.838Z,17.10
2022-10-23T20:51:24.045Z,17.10
2022-10-23T20:53:51.626Z,17.10
2022-10-23T20:56:31.380Z,17.10
2022-10-23T20:59:05.887Z,17.00
2022-10-23T21:01:34.806Z,17.00
2022-10-23T21:04:03.148Z,17.00
2022-10-23T21:06:45.782Z,17.00
2022-10-23T21:09:20.373Z,17.00
2022-10-23T21:11:47.263Z,17.00
2022-10-23T21:14:14.125Z,17.00
2022-10-23T21:16:44.379Z,17.00
2022-10-23T21:19:14.340Z,17.00
2022-10-23T21:21:41.251Z,17.00
2022-10-23T21:24:10.772Z,16.90
2022-10-23T21:26:37.586Z,16.90
2022-10-23T21:29:18.072Z,16.90
2022-10-23T21:31:50.859Z,16.90
2022-10-23T21:34:17.672Z,16.90
2022-10-23T21:37:07.484Z,16.90
2022-10-23T21:39:33.430Z,16.90
2022-10-23T21:42:00.514Z,17.00
2022-10-23T21:44:27.482Z,16.90
2022-10-23T21:46:54.381Z,16.90
2022-10-23T21:49:21.292Z,16.90
2022-10-23T21:51:48.059Z,16.90
2022-10-23T21:54:15.184Z,16.90
2022-10-23T21:56:53.807Z,16.80
2022-10-23T21:59:24.415Z,16.80
2022-10-23T22:01:52.337Z,16.90
2022-10-23T22:04:20.156Z,16.80
2022-10-23T22:06:49.748Z,16.80
2022-10-23T22:09:19.563Z,16.80
2022-10-23T22:11:48.226Z,16.80
2022-10-23T22:14:15.139Z,16.80
2022-10-23T22:16:42.289Z,16.80
2022-10-23T22:19:12.402Z,16.80
2022-10-23T22:21:40.341Z,16.80
2022-10-23T22:24:07.871Z,16.70
2022-10-23T22:26:37.652Z,16.70
2022-10-23T22:29:16.656Z,16.70
2022-10-23T22:31:47.124Z,16.70
2022-10-23T22:34:47.950Z,16.60
2022-10-23T22:37:11.585Z,16.60
2022-10-23T22:39:39.495Z,16.60
2022-10-23T22:42:06.409Z,16.40
2022-10-23T22:44:33.279Z,16.30
2022-10-23T22:47:00.134Z,16.30
2022-10-23T22:49:26.976Z,16.30
2022-10-23T22:51:53.754Z,16.30
2022-10-23T22:54:20.575Z,16.30
2022-10-23T22:56:47.351Z,16.30
2022-10-23T22:59:15.035Z,16.30
2022-10-23T23:01:45.773Z,16.20
2022-10-23T23:04:36.561Z,16.30
2022-10-23T23:07:04.484Z,16.30
2022-10-23T23:09:31.320Z,16.30
2022-10-23T23:11:58.154Z,16.30
2022-10-23T23:14:24.965Z,16.30
2022-10-23T23:16:54.887Z,16.20
2022-10-23T23:19:23.057Z,16.20
2022-10-23T23:21:51.049Z,16.20
2022-10-23T23:24:17.873Z,16.20
2022-10-23T23:26:44.732Z,16.20
2022-10-23T23:29:12.072Z,16.20
2022-10-23T23:31:42.276Z,16.20
2022-10-23T23:34:09.215Z,16.20
2022-10-23T23:36:36.217Z,16.20
2022-10-23T23:41:31.502Z,16.20
2022-10-23T23:43:58.760Z,16.20
2022-10-23T23:46:26.159Z,16.20
2022-10-23T23:48:53.146Z,16.10
2022-10-23T23:51:22.999Z,16.10
2022-10-23T23:53:51.252Z,16.10
2022-10-23T23:56:18.245Z,16.00
2022-10-23T23:58:45.511Z,15.90
